createdAt,value
2018-03-19T00:01:50.661Z,57.62
2018-03-19T00:04:18.732Z,57.39
2018-03-19T00:06:46.816Z,57.30
2018-03-19T00:09:14.865Z,57.26
2018-03-19T00:11:42.464Z,57.22
2018-03-19T00:14:10.256Z,57.24
2018-03-19T00:16:38.335Z,57.15
2018-03-19T00:19:06.187Z,57.14
2018-03-19T00:21:33.776Z,57.53
2018-03-19T00:24:01.359Z,57.30
2018-03-19T00:26:28.894Z,57.37
2018-03-19T00:28:56.799Z,57.28
2018-03-19T00:31:24.337Z,57.23
2018-03-19T00:33:51.916Z,57.34
2018-03-19T00:36:19.448Z,57.24
2018-03-19T00:38:47.036Z,57.21
2018-03-19T00:41:14.624Z,57.01
2018-03-19T00:43:42.164Z,56.99
2018-03-19T00:46:10.274Z,56.86
2018-03-19T00:48:37.862Z,56.68
2018-03-19T00:51:05.398Z,56.73
2018-03-19T00:53:33.375Z,56.56
2018-03-19T00:56:01.720Z,56.54
2018-03-19T00:58:29.259Z,56.43
2018-03-19T01:00:57.244Z,56.33
2018-03-19T01:03:24.836Z,56.36
2018-03-19T01:05:52.420Z,56.14
2018-03-19T01:08:20.018Z,56.25
2018-03-19T01:10:47.602Z,56.21
2018-03-19T01:13:15.676Z,56.12
2018-03-19T01:15:43.216Z,56.34
2018-03-19T01:18:11.179Z,56.17
2018-03-19T01:20:38.785Z,55.97
2018-03-19T01:23:06.324Z,56.03
2018-03-19T01:25:33.863Z,55.87
2018-03-19T01:28:01.444Z,55.96
2018-03-19T01:30:29.003Z,55.94
2018-03-19T01:32:57.112Z,55.79
2018-03-19T01:35:24.660Z,55.71
2018-03-19T01:37:52.258Z,55.90
2018-03-19T01:40:19.808Z,55.80
2018-03-19T01:42:47.396Z,55.83
2018-03-19T01:45:14.980Z,55.68
2018-03-19T01:47:42.968Z,55.49
2018-03-19T01:50:10.555Z,55.49
2018-03-19T01:52:49.065Z,55.32
2018-03-19T01:55:16.604Z,55.24
2018-03-19T01:57:44.184Z,55.18
2018-03-19T02:00:11.736Z,55.14
2018-03-19T02:02:39.564Z,55.07
2018-03-19T02:05:07.152Z,55.07
2018-03-19T02:07:34.691Z,55.20
2018-03-19T02:10:02.294Z,55.11
2018-03-19T02:12:29.832Z,55.19
2018-03-19T02:14:57.890Z,55.19
2018-03-19T02:17:25.431Z,55.16
2018-03-19T02:19:52.985Z,55.17
2018-03-19T02:22:20.997Z,55.00
2018-03-19T02:24:48.550Z,55.01
2018-03-19T02:27:16.136Z,54.94
2018-03-19T02:29:43.689Z,54.91
2018-03-19T02:32:11.290Z,55.03
2018-03-19T02:34:38.888Z,55.04
2018-03-19T02:37:07.454Z,54.86
2018-03-19T02:39:35.448Z,54.67
2018-03-19T02:42:03.024Z,54.77
2018-03-19T02:44:30.559Z,54.68
2018-03-19T02:46:58.152Z,54.56
2018-03-19T02:49:25.762Z,54.43
2018-03-19T02:51:53.374Z,54.39
2018-03-19T02:54:20.931Z,54.38
2018-03-19T02:56:48.491Z,54.39
2018-03-19T02:59:16.370Z,54.34
2018-03-19T03:01:43.956Z,54.33
2018-03-19T03:04:11.512Z,54.31
2018-03-19T03:06:39.093Z,54.07
2018-03-19T03:09:06.646Z,54.11
2018-03-19T03:11:34.223Z,54.08
2018-03-19T03:14:01.772Z,54.21
2018-03-19T03:16:29.351Z,54.11
2018-03-19T03:18:56.900Z,54.11
2018-03-19T03:21:24.485Z,54.10
2018-03-19T03:23:52.023Z,54.22
2018-03-19T03:26:19.616Z,54.22
2018-03-19T03:28:47.165Z,53.95
2018-03-19T03:31:14.755Z,54.29
2018-03-19T03:33:42.291Z,54.23
2018-03-19T03:36:09.834Z,54.09
2018-03-19T03:38:37.388Z,53.88
2018-03-19T03:41:04.967Z,53.98
2018-03-19T03:43:32.546Z,54.07
2018-03-19T03:46:00.138Z,54.24
2018-03-19T03:48:27.864Z,54.07
2018-03-19T03:50:55.928Z,54.01
2018-03-19T03:53:23.465Z,54.02
2018-03-19T03:55:51.047Z,53.95
2018-03-19T03:58:18.596Z,54.00
2018-03-19T04:00:46.172Z,54.04
2018-03-19T04:03:13.763Z,53.91
2018-03-19T04:05:41.598Z,53.93
2018-03-19T04:08:09.198Z,53.94
2018-03-19T04:10:36.763Z,53.99
2018-03-19T04:13:04.569Z,53.93
2018-03-19T04:15:32.184Z,53.94
2018-03-19T04:17:59.764Z,54.05
2018-03-19T04:20:27.349Z,53.93
2018-03-19T04:22:54.945Z,54.00
2018-03-19T04:25:22.503Z,53.83
2018-03-19T04:27:50.052Z,53.75
2018-03-19T04:30:17.636Z,53.94
2018-03-19T04:32:45.188Z,53.87
2018-03-19T04:35:12.776Z,53.69
2018-03-19T04:37:40.931Z,53.66
2018-03-19T04:40:08.524Z,53.67
2018-03-19T04:42:36.081Z,53.63
2018-03-19T04:45:03.660Z,53.94
2018-03-19T04:47:31.204Z,53.78
2018-03-19T04:49:58.793Z,53.64
2018-03-19T04:52:26.342Z,53.65
2018-03-19T04:54:54.537Z,53.67
2018-03-19T04:57:22.077Z,53.62
2018-03-19T04:59:49.652Z,53.52
2018-03-19T05:02:17.196Z,53.44
2018-03-19T05:04:44.787Z,53.59
2018-03-19T05:07:12.554Z,53.46
2018-03-19T05:09:40.141Z,53.38
2018-03-19T05:12:07.723Z,53.31
2018-03-19T05:14:36.077Z,53.43
2018-03-19T05:17:03.668Z,53.38
2018-03-19T05:19:31.207Z,53.35
2018-03-19T05:21:58.791Z,53.26
2018-03-19T05:24:26.327Z,53.37
2018-03-19T05:26:53.940Z,53.52
2018-03-19T05:29:21.488Z,53.46
2018-03-19T05:31:49.064Z,53.38
2018-03-19T05:34:16.652Z,52.98
2018-03-19T05:36:45.052Z,52.88
2018-03-19T05:39:12.644Z,52.90
2018-03-19T05:41:40.233Z,52.89
2018-03-19T05:44:07.788Z,52.95
2018-03-19T05:46:35.390Z,53.02
2018-03-19T05:49:03.870Z,52.99
2018-03-19T05:51:35.421Z,52.99
2018-03-19T05:54:03.720Z,52.96
2018-03-19T05:56:31.287Z,52.98
2018-03-19T05:58:58.894Z,53.29
2018-03-19T06:01:27.409Z,53.30
2018-03-19T06:03:56.037Z,53.20
2018-03-19T06:06:23.640Z,53.13
2018-03-19T06:08:51.985Z,53.00
2018-03-19T06:11:19.543Z,52.97
2018-03-19T06:13:47.491Z,53.05
2018-03-19T06:16:16.111Z,52.98
2018-03-19T06:18:44.312Z,52.89
2018-03-19T06:21:12.638Z,52.89
2018-03-19T06:23:40.191Z,52.60
2018-03-19T06:26:08.261Z,52.43
2018-03-19T06:28:35.892Z,52.21
2018-03-19T06:31:03.899Z,52.18
2018-03-19T06:33:32.058Z,52.23
2018-03-19T06:35:59.646Z,52.31
2018-03-19T06:38:27.597Z,52.41
2018-03-19T06:40:55.518Z,52.45
2018-03-19T06:43:23.142Z,52.27
2018-03-19T06:45:51.340Z,52.30
2018-03-19T06:48:19.066Z,52.35
2018-03-19T06:50:46.983Z,52.58
2018-03-19T06:53:15.362Z,52.56
2018-03-19T06:55:43.037Z,52.50
2018-03-19T06:58:10.639Z,52.05
2018-03-19T07:00:38.295Z,51.54
2018-03-19T07:03:06.879Z,51.66
2018-03-19T07:05:34.706Z,51.75
2018-03-19T07:08:02.469Z,51.70
2018-03-19T07:10:30.080Z,51.75
2018-03-19T07:12:58.315Z,51.85
2018-03-19T07:15:25.870Z,51.97
2018-03-19T07:17:53.482Z,52.13
2018-03-19T07:20:21.063Z,52.14
2018-03-19T07:22:48.686Z,52.29
2018-03-19T07:25:16.540Z,52.04
2018-03-19T07:27:44.946Z,52.00
2018-03-19T07:30:12.516Z,51.80
2018-03-19T07:32:40.126Z,51.63
2018-03-19T07:35:07.906Z,51.70
2018-03-19T07:37:35.958Z,51.85
2018-03-19T07:40:03.754Z,51.88
2018-03-19T07:42:31.465Z,51.70
2018-03-19T07:44:59.269Z,51.63
2018-03-19T07:47:28.887Z,51.50
2018-03-19T07:49:58.586Z,51.37
2018-03-19T07:52:26.550Z,51.31
2018-03-19T07:54:54.552Z,51.45
2018-03-19T07:57:23.684Z,51.37
2018-03-19T07:59:51.992Z,51.36
2018-03-19T08:02:19.750Z,51.43
2018-03-19T08:04:48.124Z,51.68
2018-03-19T08:07:15.755Z,51.94
2018-03-19T08:09:43.402Z,51.38
2018-03-19T08:12:11.254Z,51.27
2018-03-19T08:14:38.871Z,51.29
2018-03-19T08:17:07.249Z,51.27
2018-03-19T08:19:34.845Z,51.31
2018-03-19T08:22:03.396Z,51.38
2018-03-19T08:24:31.222Z,51.11
2018-03-19T08:27:07.555Z,51.21
2018-03-19T08:29:35.285Z,51.02
2018-03-19T08:32:02.915Z,51.16
2018-03-19T08:34:30.626Z,51.07
2018-03-19T08:36:58.377Z,50.95
2018-03-19T08:39:26.483Z,50.71
2018-03-19T08:41:54.583Z,50.19
2018-03-19T08:44:22.463Z,49.71
2018-03-19T08:46:50.083Z,49.88
2018-03-19T08:49:17.663Z,49.72
2018-03-19T08:51:45.480Z,49.45
2018-03-19T08:54:13.221Z,49.52
2018-03-19T08:56:40.829Z,49.82
2018-03-19T08:59:08.419Z,50.07
2018-03-19T09:01:36.028Z,50.16
2018-03-19T09:04:04.643Z,50.39
2018-03-19T09:06:32.429Z,50.34
2018-03-19T09:09:00.035Z,50.32
2018-03-19T09:11:28.895Z,50.27
2018-03-19T09:13:56.501Z,50.21
2018-03-19T09:16:24.685Z,50.39
2018-03-19T09:18:52.468Z,50.40
2018-03-19T09:21:20.070Z,49.92
2018-03-19T09:23:47.898Z,50.29
2018-03-19T09:26:16.012Z,50.49
2018-03-19T09:28:44.084Z,50.75
2018-03-19T09:33:35.636Z,50.90
2018-03-19T09:36:04.017Z,50.87
2018-03-19T09:38:31.640Z,50.67
2018-03-19T09:40:59.521Z,50.57
2018-03-19T09:43:28.189Z,50.49
2018-03-19T09:45:55.793Z,50.75
2018-03-19T09:48:24.234Z,50.28
2018-03-19T09:50:52.006Z,50.13
2018-03-19T09:53:19.578Z,50.42
2018-03-19T09:55:47.394Z,50.55
2018-03-19T09:58:15.003Z,50.74
2018-03-19T10:00:42.576Z,50.70
2018-03-19T10:03:10.828Z,50.90
2018-03-19T10:05:38.432Z,50.94
2018-03-19T10:08:06.037Z,50.84
2018-03-19T10:10:33.887Z,50.74
2018-03-19T10:13:01.446Z,51.03
2018-03-19T10:15:29.128Z,51.03
2018-03-19T10:17:56.714Z,50.93
2018-03-19T10:20:24.846Z,50.81
2018-03-19T10:22:52.443Z,50.86
2018-03-19T10:25:20.051Z,50.88
2018-03-19T10:27:47.722Z,50.66
2018-03-19T10:30:15.297Z,50.79
2018-03-19T10:32:43.459Z,50.49
2018-03-19T10:35:11.208Z,50.07
2018-03-19T10:37:38.974Z,50.16
2018-03-19T10:40:06.599Z,50.22
2018-03-19T10:42:34.713Z,50.39
2018-03-19T10:45:03.158Z,50.37
2018-03-19T10:47:31.221Z,50.41
2018-03-19T10:49:59.028Z,50.35
2018-03-19T10:52:26.599Z,50.38
2018-03-19T10:54:54.206Z,50.37
2018-03-19T10:57:21.783Z,50.29
2018-03-19T10:59:49.399Z,50.19
2018-03-19T11:05:24.585Z,50.22
2018-03-19T11:07:58.133Z,50.47
2018-03-19T11:10:25.871Z,50.02
2018-03-19T11:12:53.858Z,50.04
2018-03-19T11:15:21.604Z,49.86
2018-03-19T11:17:49.895Z,49.95
2018-03-19T11:20:17.502Z,50.64
2018-03-19T11:22:45.135Z,50.46
2018-03-19T11:25:12.875Z,50.53
2018-03-19T11:27:40.482Z,50.63
2018-03-19T11:30:08.126Z,50.67
2018-03-19T11:32:35.758Z,50.67
2018-03-19T11:35:03.705Z,50.49
2018-03-19T11:37:31.335Z,50.50
2018-03-19T11:39:58.960Z,50.53
2018-03-19T11:42:26.535Z,50.52
2018-03-19T11:44:55.392Z,50.46
2018-03-19T11:47:23.459Z,50.46
2018-03-19T11:49:51.046Z,50.07
2018-03-19T11:52:18.988Z,49.87
2018-03-19T11:54:46.676Z,50.18
2018-03-19T11:57:14.282Z,50.59
2018-03-19T11:59:41.932Z,50.41
2018-03-19T12:02:10.458Z,50.48
2018-03-19T12:04:39.054Z,50.56
2018-03-19T12:07:06.738Z,50.57
2018-03-19T12:09:34.302Z,50.81
2018-03-19T12:12:01.905Z,50.79
2018-03-19T12:14:29.468Z,50.50
2018-03-19T12:16:57.070Z,50.52
2018-03-19T12:19:24.704Z,50.36
2018-03-19T12:21:52.411Z,50.51
2018-03-19T12:24:19.982Z,50.46
2018-03-19T12:26:47.660Z,50.74
2018-03-19T12:29:15.264Z,50.89
2018-03-19T12:31:42.841Z,50.63
2018-03-19T12:34:10.445Z,50.58
2018-03-19T12:36:38.004Z,50.60
2018-03-19T12:39:05.790Z,50.58
2018-03-19T12:41:33.337Z,50.84
2018-03-19T12:44:02.232Z,50.79
2018-03-19T12:46:29.792Z,50.70
2018-03-19T12:48:57.597Z,50.57
2018-03-19T12:51:31.245Z,50.53
2018-03-19T12:53:58.824Z,50.64
2018-03-19T12:56:26.409Z,50.75
2018-03-19T12:58:54.016Z,50.80
2018-03-19T13:01:22.318Z,50.77
2018-03-19T13:03:49.856Z,50.60
2018-03-19T13:06:17.461Z,50.61
2018-03-19T13:08:45.015Z,50.55
2018-03-19T13:11:12.656Z,50.52
2018-03-19T13:13:40.227Z,50.65
2018-03-19T13:16:07.800Z,50.54
2018-03-19T13:18:35.396Z,50.66
2018-03-19T13:21:03.822Z,50.31
2018-03-19T13:23:31.489Z,50.16
2018-03-19T13:25:59.783Z,50.25
2018-03-19T13:28:27.401Z,50.27
2018-03-19T13:30:54.977Z,50.27
2018-03-19T13:33:22.532Z,50.13
2018-03-19T13:35:50.136Z,50.06
2018-03-19T13:38:17.745Z,50.13
2018-03-19T13:40:45.935Z,50.14
2018-03-19T13:43:13.503Z,50.03
2018-03-19T13:45:41.113Z,49.94
2018-03-19T13:48:09.247Z,50.00
2018-03-19T13:50:37.440Z,50.01
2018-03-19T13:53:05.009Z,50.13
2018-03-19T13:55:32.646Z,50.26
2018-03-19T13:58:00.682Z,50.31
2018-03-19T14:00:28.296Z,50.32
2018-03-19T14:02:56.669Z,50.35
2018-03-19T14:05:24.893Z,50.37
2018-03-19T14:07:52.842Z,50.09
2018-03-19T14:10:20.399Z,49.97
2018-03-19T14:12:48.008Z,50.02
2018-03-19T14:15:15.565Z,50.08
2018-03-19T14:17:43.150Z,50.14
2018-03-19T14:20:11.165Z,50.15
2018-03-19T14:22:39.358Z,50.17
2018-03-19T14:25:07.953Z,50.22
2018-03-19T14:27:36.532Z,50.18
2018-03-19T14:30:04.105Z,50.33
2018-03-19T14:32:31.850Z,50.21
2018-03-19T14:34:59.914Z,50.29
2018-03-19T14:37:27.521Z,50.32
2018-03-19T14:39:55.139Z,50.40
2018-03-19T14:42:23.252Z,50.39
2018-03-19T14:44:50.877Z,50.43
2018-03-19T14:47:18.448Z,50.39
2018-03-19T14:49:46.129Z,50.43
2018-03-19T14:52:14.460Z,50.46
2018-03-19T14:54:42.321Z,50.41
2018-03-19T14:57:10.145Z,50.46
2018-03-19T14:59:39.825Z,50.44
2018-03-19T15:02:07.386Z,50.58
2018-03-19T15:04:35.850Z,50.53
2018-03-19T15:07:03.468Z,50.51
2018-03-19T15:09:31.086Z,50.50
2018-03-19T15:11:58.693Z,50.56
2018-03-19T15:14:26.296Z,50.63
2018-03-19T15:16:53.851Z,50.59
2018-03-19T15:19:22.301Z,50.53
2018-03-19T15:21:50.274Z,50.57
2018-03-19T15:24:17.841Z,50.76
2018-03-19T15:26:45.419Z,50.67
2018-03-19T15:29:13.015Z,50.62
2018-03-19T15:31:41.422Z,50.65
2018-03-19T15:34:09.038Z,50.69
2018-03-19T15:36:37.022Z,50.67
2018-03-19T15:39:04.655Z,50.68
2018-03-19T15:41:32.493Z,50.73
2018-03-19T15:44:00.131Z,50.72
2018-03-19T15:46:27.728Z,50.79
2018-03-19T15:48:55.875Z,50.81
2018-03-19T15:51:23.542Z,50.82
2018-03-19T15:53:51.096Z,50.70
2018-03-19T15:56:20.109Z,50.78
2018-03-19T15:58:48.025Z,50.87
2018-03-19T16:01:15.951Z,50.91
2018-03-19T16:03:44.370Z,50.99
2018-03-19T16:06:16.365Z,51.01
2018-03-19T16:08:45.385Z,50.99
2018-03-19T16:11:15.024Z,51.23
2018-03-19T16:13:42.575Z,51.26
2018-03-19T16:16:11.444Z,51.37
2018-03-19T16:18:38.997Z,51.39
2018-03-19T16:21:09.061Z,51.39
2018-03-19T16:23:36.624Z,51.33
2018-03-19T16:26:05.023Z,51.48
2018-03-19T16:28:32.625Z,51.47
2018-03-19T16:31:00.175Z,51.42
2018-03-19T16:33:28.684Z,51.44
2018-03-19T16:35:58.147Z,51.45
2018-03-19T16:38:26.093Z,51.49
2018-03-19T16:40:54.150Z,51.49
2018-03-19T16:43:22.890Z,51.49
2018-03-19T16:45:50.741Z,51.51
2018-03-19T16:48:19.092Z,51.47
2018-03-19T16:50:47.063Z,51.50
2018-03-19T16:53:14.685Z,51.41
2018-03-19T16:55:43.096Z,51.43
2018-03-19T16:58:11.712Z,51.44
2018-03-19T17:00:39.652Z,51.52
2018-03-19T17:03:07.592Z,51.52
2018-03-19T17:05:35.160Z,51.51
2018-03-19T17:08:02.782Z,51.50
2018-03-19T17:10:31.156Z,51.49
2018-03-19T17:12:58.788Z,51.49
2018-03-19T17:15:27.200Z,51.56
2018-03-19T17:17:54.814Z,51.68
2018-03-19T17:20:22.891Z,51.76
2018-03-19T17:22:50.881Z,51.71
2018-03-19T17:25:19.831Z,51.67
2018-03-19T17:27:49.303Z,51.66
2018-03-19T17:30:18.694Z,51.65
2018-03-19T17:32:46.757Z,51.72
2018-03-19T17:35:14.761Z,51.71
2018-03-19T17:37:43.330Z,51.63
2018-03-19T17:40:12.028Z,51.64
2018-03-19T17:42:40.235Z,51.74
2018-03-19T17:45:09.095Z,51.80
2018-03-19T17:47:37.483Z,51.74
2018-03-19T17:50:05.847Z,51.70
2018-03-19T17:52:35.239Z,51.70
2018-03-19T17:55:03.619Z,51.66
2018-03-19T17:57:33.585Z,51.75
2018-03-19T18:00:02.241Z,51.72
2018-03-19T18:02:30.522Z,51.92
2018-03-19T18:04:59.130Z,51.84
2018-03-19T18:07:28.260Z,51.89
2018-03-19T18:09:56.511Z,51.87
2018-03-19T18:12:25.714Z,51.88
2018-03-19T18:14:53.987Z,51.75
2018-03-19T18:17:22.630Z,51.84
2018-03-19T18:19:51.621Z,51.85
2018-03-19T18:22:19.939Z,51.84
2018-03-19T18:24:51.266Z,51.86
2018-03-19T18:27:21.245Z,51.93
2018-03-19T18:29:50.666Z,51.99
2018-03-19T18:32:20.497Z,51.97
2018-03-19T18:34:50.656Z,52.14
2018-03-19T18:37:19.783Z,52.03
2018-03-19T18:39:48.832Z,51.99
2018-03-19T18:42:17.455Z,51.97
2018-03-19T18:44:45.660Z,51.99
2018-03-19T18:47:14.847Z,52.04
2018-03-19T18:49:43.110Z,51.91
2018-03-19T18:52:11.598Z,52.09
2018-03-19T18:54:40.584Z,52.16
2018-03-19T18:57:08.903Z,52.14
2018-03-19T18:59:37.345Z,52.15
2018-03-19T19:02:06.348Z,52.23
2018-03-19T19:04:35.241Z,52.20
2018-03-19T19:07:03.314Z,52.18
2018-03-19T19:09:32.050Z,52.19
2018-03-19T19:12:01.345Z,52.12
2018-03-19T19:14:30.073Z,52.20
2018-03-19T19:17:01.080Z,52.19
2018-03-19T19:19:29.319Z,52.16
2018-03-19T19:21:59.064Z,52.14
2018-03-19T19:24:30.296Z,52.09
2018-03-19T19:26:58.716Z,52.12
2018-03-19T19:29:27.706Z,52.13
2018-03-19T19:31:56.086Z,52.08
2018-03-19T19:34:24.777Z,52.01
2018-03-19T19:36:53.537Z,52.09
2018-03-19T19:39:22.508Z,52.15
2018-03-19T19:41:52.348Z,52.17
2018-03-19T19:44:21.055Z,52.14
2018-03-19T19:46:50.898Z,52.12
2018-03-19T19:49:20.262Z,52.23
2018-03-19T19:51:51.093Z,52.29
2018-03-19T19:54:20.711Z,52.22
2018-03-19T19:56:49.673Z,52.24
2018-03-19T19:59:18.489Z,52.25
2018-03-19T20:01:46.981Z,52.19
2018-03-19T20:04:16.057Z,52.14
2018-03-19T20:06:47.510Z,52.13
2018-03-19T20:09:16.536Z,52.43
2018-03-19T20:11:46.072Z,52.89
2018-03-19T20:14:15.365Z,52.89
2018-03-19T20:16:44.128Z,52.86
2018-03-19T20:19:12.792Z,52.71
2018-03-19T20:21:43.309Z,52.68
2018-03-19T20:24:12.436Z,52.60
2018-03-19T20:26:40.609Z,52.77
2018-03-19T20:29:09.055Z,52.94
2018-03-19T20:31:37.241Z,52.88
2018-03-19T20:34:06.117Z,52.82
2018-03-19T20:36:34.365Z,52.76
2018-03-19T20:39:04.090Z,52.83
2018-03-19T20:41:31.697Z,52.87
2018-03-19T20:43:59.576Z,53.00
2018-03-19T20:46:27.187Z,52.91
2018-03-19T20:48:55.346Z,53.03
2018-03-19T20:51:23.707Z,53.12
2018-03-19T20:53:51.956Z,53.06
2018-03-19T20:56:19.953Z,52.85
2018-03-19T20:58:47.516Z,53.40
2018-03-19T21:01:16.178Z,53.45
2018-03-19T21:03:43.792Z,53.33
2018-03-19T21:06:11.367Z,53.29
2018-03-19T21:08:39.203Z,53.60
2018-03-19T21:11:06.924Z,53.48
2018-03-19T21:13:34.800Z,53.34
2018-03-19T21:16:03.484Z,53.16
2018-03-19T21:18:31.075Z,53.28
2018-03-19T21:20:58.652Z,53.51
2018-03-19T21:23:27.195Z,53.43
2018-03-19T21:25:55.463Z,53.31
2018-03-19T21:28:23.428Z,53.17
2018-03-19T21:30:51.107Z,52.93
2018-03-19T21:33:21.323Z,52.90
2018-03-19T21:35:49.394Z,52.91
2018-03-19T21:38:17.753Z,53.30
2018-03-19T21:40:46.226Z,54.72
2018-03-19T21:43:14.638Z,55.07
2018-03-19T21:45:42.528Z,55.26
2018-03-19T21:48:10.131Z,55.38
2018-03-19T21:50:37.715Z,55.17
2018-03-19T21:53:05.532Z,56.37
2018-03-19T21:55:33.148Z,56.03
2018-03-19T21:58:00.705Z,55.44
2018-03-19T22:00:28.296Z,56.26
2018-03-19T22:02:55.882Z,55.92
2018-03-19T22:05:23.960Z,56.04
2018-03-19T22:07:51.568Z,56.11
2018-03-19T22:10:19.127Z,56.58
2018-03-19T22:12:46.675Z,56.11
2018-03-19T22:15:15.256Z,55.93
2018-03-19T22:17:42.964Z,56.28
2018-03-19T22:20:11.177Z,57.12
2018-03-19T22:22:40.158Z,57.52
2018-03-19T22:25:08.209Z,57.09
2018-03-19T22:27:36.638Z,56.95
2018-03-19T22:30:05.084Z,56.91
2018-03-19T22:32:32.880Z,59.41
2018-03-19T22:35:00.457Z,59.59
2018-03-19T22:37:28.089Z,60.24
2018-03-19T22:39:55.647Z,61.17
2018-03-19T22:42:23.692Z,62.66
2018-03-19T22:44:51.235Z,63.51
2018-03-19T22:47:19.345Z,63.27
2018-03-19T22:49:46.896Z,64.34
2018-03-19T22:52:15.505Z,64.63
2018-03-19T22:54:43.061Z,63.75
2018-03-19T22:57:10.653Z,62.41
2018-03-19T22:59:38.222Z,61.28
2018-03-19T23:02:05.826Z,60.58
2018-03-19T23:04:45.793Z,60.23
2018-03-19T23:07:13.375Z,60.09
2018-03-19T23:09:40.967Z,59.32
2018-03-19T23:12:09.404Z,58.99
2018-03-19T23:14:36.992Z,58.84
2018-03-19T23:17:04.595Z,59.42
2018-03-19T23:19:32.187Z,59.35
2018-03-19T23:21:59.748Z,60.25
2018-03-19T23:24:27.352Z,60.69
2018-03-19T23:26:55.061Z,60.85
2018-03-19T23:29:22.807Z,60.94
2018-03-19T23:31:50.400Z,60.70
2018-03-19T23:34:18.341Z,60.61
2018-03-19T23:36:45.943Z,61.51
2018-03-19T23:39:13.489Z,62.56
2018-03-19T23:41:41.049Z,63.13
2018-03-19T23:44:08.673Z,62.80
2018-03-19T23:46:36.219Z,62.36
2018-03-19T23:49:04.209Z,62.49
2018-03-19T23:51:32.512Z,62.77
2018-03-19T23:54:00.109Z,62.85
2018-03-19T23:56:27.677Z,62.42
2018-03-19T23:58:55.796Z,62.45
